createdAt,value
2017-04-05T00:00:14.933Z,20.97
2017-04-05T00:00:47.244Z,20.96
2017-04-05T00:01:19.561Z,21.06
2017-04-05T00:01:51.888Z,21
2017-04-05T00:02:24.199Z,21.03
2017-04-05T00:02:56.535Z,20.88
2017-04-05T00:03:28.859Z,20.88
2017-04-05T00:04:01.175Z,20.9
2017-04-05T00:04:33.504Z,20.94
2017-04-05T00:05:05.810Z,20.93
2017-04-05T00:05:38.115Z,20.93
2017-04-05T00:06:10.410Z,20.97
2017-04-05T00:06:42.737Z,20.94
2017-04-05T00:07:15.077Z,20.82
2017-04-05T00:07:47.385Z,20.83
2017-04-05T00:08:19.684Z,20.82
2017-04-05T00:08:52.015Z,20.76
2017-04-05T00:09:24.340Z,20.86
2017-04-05T00:09:56.647Z,20.79
2017-04-05T00:10:28.960Z,20.82
2017-04-05T00:11:01.268Z,20.79
2017-04-05T00:11:33.586Z,20.83
2017-04-05T00:12:05.890Z,20.78
2017-04-05T00:12:38.202Z,20.79
2017-04-05T00:13:10.515Z,20.82
2017-04-05T00:13:42.816Z,20.83
2017-04-05T00:14:15.126Z,20.66
2017-04-05T00:14:47.434Z,20.72
2017-04-05T00:15:19.753Z,20.81
2017-04-05T00:15:52.053Z,20.74
2017-04-05T00:16:24.350Z,20.79
2017-04-05T00:16:56.663Z,20.68
2017-04-05T00:17:28.979Z,20.75
2017-04-05T00:18:01.285Z,20.68
2017-04-05T00:18:33.606Z,20.72
2017-04-05T00:19:05.922Z,20.74
2017-04-05T00:19:38.238Z,20.64
2017-04-05T00:20:10.530Z,20.74
2017-04-05T00:20:42.833Z,20.67
2017-04-05T00:21:15.138Z,20.74
2017-04-05T00:21:47.439Z,20.64
2017-04-05T00:22:19.701Z,20.66
2017-04-05T00:22:52.002Z,20.72
2017-04-05T00:23:24.245Z,20.64
2017-04-05T00:23:56.499Z,20.63
2017-04-05T00:24:28.749Z,20.71
2017-04-05T00:25:01.048Z,20.57
2017-04-05T00:25:34.087Z,20.61
2017-04-05T00:26:06.345Z,20.58
2017-04-05T00:26:38.608Z,20.57
2017-04-05T00:27:10.984Z,20.57
2017-04-05T00:27:43.293Z,20.54
2017-04-05T00:28:15.571Z,20.6
2017-04-05T00:28:47.824Z,20.58
2017-04-05T00:29:20.075Z,20.53
2017-04-05T00:29:52.340Z,20.49
2017-04-05T00:30:24.602Z,20.54
2017-04-05T00:30:56.878Z,20.57
2017-04-05T00:31:29.109Z,20.48
2017-04-05T00:32:01.374Z,20.53
2017-04-05T00:32:33.652Z,20.54
2017-04-05T00:33:06.531Z,20.46
2017-04-05T00:33:38.833Z,20.48
2017-04-05T00:34:11.637Z,20.44
2017-04-05T00:34:43.915Z,20.51
2017-04-05T00:35:16.297Z,20.54
2017-04-05T00:35:48.550Z,20.53
2017-04-05T00:36:20.818Z,20.48
2017-04-05T00:36:53.073Z,20.41
2017-04-05T00:37:25.347Z,20.4
2017-04-05T00:37:57.636Z,20.38
2017-04-05T00:38:29.899Z,20.4
2017-04-05T00:39:02.156Z,20.46
2017-04-05T00:39:34.443Z,20.37
2017-04-05T00:40:06.702Z,20.44
2017-04-05T00:40:38.956Z,20.35
2017-04-05T00:41:11.215Z,20.37
2017-04-05T00:41:44.245Z,20.38
2017-04-05T00:42:17.080Z,20.42
2017-04-05T00:42:49.394Z,20.41
2017-04-05T00:43:21.714Z,20.34
2017-04-05T00:43:54.026Z,20.41
2017-04-05T00:44:26.322Z,20.42
2017-04-05T00:44:58.620Z,20.4
2017-04-05T00:45:30.916Z,20.41
2017-04-05T00:46:03.219Z,20.41
2017-04-05T00:46:35.533Z,20.37
2017-04-05T00:47:07.849Z,20.35
2017-04-05T00:47:40.174Z,20.38
2017-04-05T00:48:12.484Z,20.38
2017-04-05T00:48:44.822Z,20.35
2017-04-05T00:49:17.164Z,20.37
2017-04-05T00:49:49.474Z,20.32
2017-04-05T00:50:21.796Z,20.37
2017-04-05T00:50:54.112Z,20.37
2017-04-05T00:51:26.433Z,20.35
2017-04-05T00:51:58.756Z,20.23
2017-04-05T00:52:31.008Z,20.32
2017-04-05T00:53:03.247Z,20.41
2017-04-05T00:53:35.517Z,20.35
2017-04-05T00:54:07.783Z,20.38
2017-04-05T00:54:40.042Z,20.4
2017-04-05T00:55:12.292Z,20.44
2017-04-05T00:55:44.546Z,20.4
2017-04-05T00:56:16.824Z,20.34
2017-04-05T00:56:49.093Z,20.37
2017-04-05T00:57:21.374Z,20.38
2017-04-05T00:57:53.635Z,20.42
2017-04-05T00:58:25.897Z,20.37
2017-04-05T00:58:58.242Z,20.4
2017-04-05T00:59:30.502Z,20.4
2017-04-05T01:00:02.744Z,20.4
2017-04-05T01:00:35.013Z,20.35
2017-04-05T01:01:07.262Z,20.41
2017-04-05T01:01:39.494Z,20.4
2017-04-05T01:02:12.633Z,20.34
2017-04-05T01:02:44.882Z,20.41
2017-04-05T01:03:17.163Z,20.41
2017-04-05T01:03:50.142Z,20.41
2017-04-05T01:04:22.407Z,20.34
2017-04-05T01:04:54.659Z,20.41
2017-04-05T01:05:27.698Z,20.37
2017-04-05T01:05:59.945Z,20.41
2017-04-05T01:06:32.209Z,20.44
2017-04-05T01:07:04.449Z,20.4
2017-04-05T01:07:36.708Z,20.4
2017-04-05T01:08:08.961Z,20.44
2017-04-05T01:08:41.230Z,20.4
2017-04-05T01:09:13.470Z,20.37
2017-04-05T01:09:45.703Z,20.42
2017-04-05T01:10:17.948Z,20.44
2017-04-05T01:10:51.205Z,20.46
2017-04-05T01:11:24.263Z,20.41
2017-04-05T01:11:56.521Z,20.38
2017-04-05T01:12:28.792Z,20.38
2017-04-05T01:13:01.057Z,20.42
2017-04-05T01:13:33.305Z,20.46
2017-04-05T01:14:05.579Z,20.41
2017-04-05T01:14:37.804Z,20.41
2017-04-05T01:15:10.090Z,20.42
2017-04-05T01:15:42.329Z,20.41
2017-04-05T01:16:14.582Z,20.46
2017-04-05T01:16:46.839Z,20.53
2017-04-05T01:17:19.106Z,20.32
2017-04-05T01:17:51.372Z,20.41
2017-04-05T01:18:23.747Z,20.42
2017-04-05T01:18:56.004Z,20.44
2017-04-05T01:19:28.263Z,20.46
2017-04-05T01:20:00.529Z,20.38
2017-04-05T01:20:32.830Z,20.44
2017-04-05T01:21:05.106Z,20.49
2017-04-05T01:21:37.381Z,20.4
2017-04-05T01:22:09.645Z,20.42
2017-04-05T01:22:41.915Z,20.41
2017-04-05T01:23:14.155Z,20.46
2017-04-05T01:23:46.411Z,20.41
2017-04-05T01:24:18.666Z,20.37
2017-04-05T01:24:50.946Z,20.44
2017-04-05T01:25:23.196Z,20.44
2017-04-05T01:25:55.474Z,20.38
2017-04-05T01:26:27.726Z,20.4
2017-04-05T01:27:00.043Z,20.4
2017-04-05T01:27:32.317Z,20.42
2017-04-05T01:28:04.576Z,20.46
2017-04-05T01:28:36.829Z,20.48
2017-04-05T01:29:09.141Z,20.46
2017-04-05T01:29:41.389Z,20.42
2017-04-05T01:30:13.651Z,20.42
2017-04-05T01:30:45.909Z,20.51
2017-04-05T01:31:18.169Z,20.54
2017-04-05T01:31:50.419Z,20.49
2017-04-05T01:32:22.713Z,20.53
2017-04-05T01:32:55.027Z,20.42
2017-04-05T01:33:27.344Z,20.54
2017-04-05T01:33:59.640Z,20.54
2017-04-05T01:34:31.943Z,20.51
2017-04-05T01:35:04.268Z,20.49
2017-04-05T01:35:36.584Z,20.57
2017-04-05T01:36:08.914Z,20.6
2017-04-05T01:36:41.233Z,20.49
2017-04-05T01:37:13.546Z,20.51
2017-04-05T01:37:45.843Z,20.61
2017-04-05T01:38:18.154Z,20.48
2017-04-05T01:38:50.447Z,20.51
2017-04-05T01:39:22.761Z,20.51
2017-04-05T01:39:55.071Z,20.56
2017-04-05T01:40:27.382Z,20.58
2017-04-05T01:40:59.693Z,20.53
2017-04-05T01:41:32.009Z,20.61
2017-04-05T01:42:04.313Z,20.54
2017-04-05T01:42:36.631Z,20.58
2017-04-05T01:43:08.939Z,20.57
2017-04-05T01:43:41.263Z,20.58
2017-04-05T01:44:13.560Z,20.56
2017-04-05T01:44:45.875Z,20.58
2017-04-05T01:45:18.177Z,20.57
2017-04-05T01:45:50.486Z,20.61
2017-04-05T01:46:22.821Z,20.57
2017-04-05T01:46:55.141Z,20.57
2017-04-05T01:47:27.466Z,20.56
2017-04-05T01:47:59.798Z,20.63
2017-04-05T01:48:32.112Z,20.66
2017-04-05T01:49:04.405Z,20.61
2017-04-05T01:49:36.717Z,20.6
2017-04-05T01:50:09.042Z,20.66
2017-04-05T01:50:41.357Z,20.6
2017-04-05T01:51:13.659Z,20.66
2017-04-05T01:51:45.968Z,20.66
2017-04-05T01:52:18.268Z,20.67
2017-04-05T01:52:50.570Z,20.66
2017-04-05T01:53:22.884Z,20.68
2017-04-05T01:53:55.206Z,20.58
2017-04-05T01:54:27.501Z,20.61
2017-04-05T01:54:59.792Z,20.64
2017-04-05T01:55:32.108Z,20.63
2017-04-05T01:56:04.414Z,20.66
2017-04-05T01:56:36.737Z,20.64
2017-04-05T01:57:09.058Z,20.67
2017-04-05T01:57:41.384Z,20.66
2017-04-05T01:58:13.685Z,20.66
2017-04-05T01:58:45.997Z,20.67
2017-04-05T01:59:18.301Z,20.63
2017-04-05T01:59:50.591Z,20.64
2017-04-05T02:00:22.897Z,20.68
2017-04-05T02:00:55.198Z,20.66
2017-04-05T02:01:27.513Z,20.68
2017-04-05T02:01:59.825Z,20.68
2017-04-05T02:02:32.092Z,20.71
2017-04-05T02:03:04.367Z,20.66
2017-04-05T02:03:36.635Z,20.63
2017-04-05T02:04:08.919Z,20.67
2017-04-05T02:04:41.164Z,20.74
2017-04-05T02:05:13.445Z,20.71
2017-04-05T02:05:46.608Z,20.72
2017-04-05T02:06:18.865Z,20.66
2017-04-05T02:06:51.137Z,20.61
2017-04-05T02:07:23.383Z,20.66
2017-04-05T02:07:55.641Z,20.66
2017-04-05T02:08:27.900Z,20.61
2017-04-05T02:09:01.092Z,20.6
2017-04-05T02:09:33.347Z,20.61
2017-04-05T02:10:06.175Z,20.67
2017-04-05T02:10:38.441Z,20.58
2017-04-05T02:11:10.692Z,20.63
2017-04-05T02:11:42.938Z,20.64
2017-04-05T02:12:15.186Z,20.57
2017-04-05T02:12:47.507Z,20.6
2017-04-05T02:13:19.819Z,20.6
2017-04-05T02:13:52.150Z,20.57
2017-04-05T02:14:24.469Z,20.57
2017-04-05T02:14:56.785Z,20.58
2017-04-05T02:15:29.095Z,20.57
2017-04-05T02:16:01.413Z,20.57
2017-04-05T02:16:33.727Z,20.58
2017-04-05T02:17:06.031Z,20.56
2017-04-05T02:17:38.336Z,20.58
2017-04-05T02:18:10.631Z,20.58
2017-04-05T02:18:42.936Z,20.57
2017-04-05T02:19:15.254Z,20.6
2017-04-05T02:19:47.590Z,20.54
2017-04-05T02:20:19.903Z,20.58
2017-04-05T02:20:52.204Z,20.56
2017-04-05T02:21:24.519Z,20.56
2017-04-05T02:21:56.831Z,20.51
2017-04-05T02:22:29.081Z,20.57
2017-04-05T02:23:02.164Z,20.57
2017-04-05T02:23:34.439Z,20.56
2017-04-05T02:24:07.581Z,20.57
2017-04-05T02:24:40.595Z,20.57
2017-04-05T02:25:12.847Z,20.51
2017-04-05T02:25:45.097Z,20.48
2017-04-05T02:26:17.340Z,20.56
2017-04-05T02:26:50.139Z,20.61
2017-04-05T02:27:22.398Z,20.51
2017-04-05T02:27:54.654Z,20.58
2017-04-05T02:28:26.909Z,20.56
2017-04-05T02:28:59.151Z,20.51
2017-04-05T02:29:31.435Z,20.49
2017-04-05T02:30:03.694Z,20.56
2017-04-05T02:30:36.022Z,20.54
2017-04-05T02:31:08.278Z,20.6
2017-04-05T02:31:40.535Z,20.54
2017-04-05T02:32:12.789Z,20.54
2017-04-05T02:32:45.103Z,20.6
2017-04-05T02:33:17.414Z,20.58
2017-04-05T02:33:49.722Z,20.53
2017-04-05T02:34:22.028Z,20.51
2017-04-05T02:34:54.346Z,20.51
2017-04-05T02:35:26.654Z,20.6
2017-04-05T02:35:58.966Z,20.54
2017-04-05T02:36:31.286Z,20.54
2017-04-05T02:37:03.590Z,20.49
2017-04-05T02:37:35.901Z,20.54
2017-04-05T02:38:08.208Z,20.58
2017-04-05T02:38:40.514Z,20.58
2017-04-05T02:39:12.823Z,20.48
2017-04-05T02:39:45.148Z,20.53
2017-04-05T02:40:17.480Z,20.57
2017-04-05T02:40:49.798Z,20.51
2017-04-05T02:41:22.101Z,20.51
2017-04-05T02:41:54.416Z,20.49
2017-04-05T02:42:26.714Z,20.54
2017-04-05T02:42:59.023Z,20.49
2017-04-05T02:43:31.327Z,20.51
2017-04-05T02:44:03.641Z,20.54
2017-04-05T02:44:35.958Z,20.48
2017-04-05T02:45:08.284Z,20.49
2017-04-05T02:45:40.602Z,20.48
2017-04-05T02:46:12.937Z,20.49
2017-04-05T02:46:45.242Z,20.53
2017-04-05T02:47:17.536Z,20.51
2017-04-05T02:47:49.856Z,20.58
2017-04-05T02:48:22.170Z,20.48
2017-04-05T02:48:54.496Z,20.53
2017-04-05T02:49:26.814Z,20.49
2017-04-05T02:49:59.122Z,20.42
2017-04-05T02:50:31.441Z,20.51
2017-04-05T02:51:03.752Z,20.48
2017-04-05T02:51:36.048Z,20.53
2017-04-05T02:52:08.367Z,20.56
2017-04-05T02:52:40.630Z,20.57
2017-04-05T02:53:12.889Z,20.48
2017-04-05T02:53:45.157Z,20.44
2017-04-05T02:54:17.408Z,20.48
2017-04-05T02:54:49.656Z,20.42
2017-04-05T02:55:21.906Z,20.42
2017-04-05T02:55:54.168Z,20.46
2017-04-05T02:56:26.433Z,20.42
2017-04-05T02:56:58.749Z,20.48
2017-04-05T02:57:31.013Z,20.41
2017-04-05T02:58:03.275Z,20.42
2017-04-05T02:58:35.551Z,20.41
2017-04-05T02:59:07.797Z,20.42
2017-04-05T02:59:40.073Z,20.41
2017-04-05T03:00:12.347Z,20.44
2017-04-05T03:00:44.638Z,20.53
2017-04-05T03:01:16.880Z,20.41
2017-04-05T03:01:49.129Z,20.41
2017-04-05T03:02:21.443Z,20.35
2017-04-05T03:02:53.760Z,20.44
2017-04-05T03:03:26.066Z,20.37
2017-04-05T03:03:58.371Z,20.35
2017-04-05T03:04:30.671Z,20.38
2017-04-05T03:05:02.979Z,20.37
2017-04-05T03:05:35.292Z,20.37
2017-04-05T03:06:07.605Z,20.46
2017-04-05T03:06:39.936Z,20.4
2017-04-05T03:07:12.244Z,20.4
2017-04-05T03:07:44.546Z,20.38
2017-04-05T03:08:16.870Z,20.4
2017-04-05T03:08:49.204Z,20.42
2017-04-05T03:09:21.520Z,20.44
2017-04-05T03:09:53.843Z,20.4
2017-04-05T03:10:26.131Z,20.37
2017-04-05T03:10:58.435Z,20.51
2017-04-05T03:11:30.747Z,20.41
2017-04-05T03:12:03.064Z,20.42
2017-04-05T03:12:35.376Z,20.54
2017-04-05T03:13:07.681Z,20.38
2017-04-05T03:13:40.008Z,20.38
2017-04-05T03:14:12.326Z,20.4
2017-04-05T03:14:44.619Z,20.4
2017-04-05T03:15:16.934Z,20.38
2017-04-05T03:15:49.252Z,20.38
2017-04-05T03:16:21.555Z,20.41
2017-04-05T03:16:53.854Z,20.38
2017-04-05T03:17:26.162Z,20.38
2017-04-05T03:17:58.487Z,20.35
2017-04-05T03:18:30.801Z,20.35
2017-04-05T03:19:03.132Z,20.34
2017-04-05T03:19:35.454Z,20.38
2017-04-05T03:20:07.760Z,20.48
2017-04-05T03:20:40.069Z,20.46
2017-04-05T03:21:12.370Z,20.41
2017-04-05T03:21:44.665Z,20.48
2017-04-05T03:22:16.977Z,20.4
2017-04-05T03:22:49.311Z,20.41
2017-04-05T03:23:21.627Z,20.42
2017-04-05T03:23:53.941Z,20.49
2017-04-05T03:24:26.241Z,20.37
2017-04-05T03:24:58.567Z,20.4
2017-04-05T03:25:30.885Z,20.35
2017-04-05T03:26:03.193Z,20.38
2017-04-05T03:26:35.487Z,20.4
2017-04-05T03:27:07.800Z,20.35
2017-04-05T03:27:40.109Z,20.35
2017-04-05T03:28:12.417Z,20.41
2017-04-05T03:28:44.722Z,20.37
2017-04-05T03:29:17.045Z,20.37
2017-04-05T03:29:49.344Z,20.34
2017-04-05T03:30:21.652Z,20.37
2017-04-05T03:30:53.963Z,20.27
2017-04-05T03:31:26.301Z,20.37
2017-04-05T03:31:58.625Z,20.34
2017-04-05T03:32:30.941Z,20.32
2017-04-05T03:33:03.262Z,20.32
2017-04-05T03:33:35.572Z,20.38
2017-04-05T03:34:07.897Z,20.38
2017-04-05T03:34:40.211Z,20.25
2017-04-05T03:35:12.538Z,20.37
2017-04-05T03:35:44.851Z,20.32
2017-04-05T03:36:17.171Z,20.38
2017-04-05T03:36:49.489Z,20.25
2017-04-05T03:37:21.810Z,20.27
2017-04-05T03:37:54.133Z,20.26
2017-04-05T03:38:26.444Z,20.25
2017-04-05T03:38:58.755Z,20.32
2017-04-05T03:39:31.057Z,20.35
2017-04-05T03:40:03.379Z,20.38
2017-04-05T03:40:35.689Z,20.32
2017-04-05T03:41:07.982Z,20.27
2017-04-05T03:41:40.281Z,20.26
2017-04-05T03:42:12.598Z,20.29
2017-04-05T03:42:44.914Z,20.35
2017-04-05T03:43:17.227Z,20.26
2017-04-05T03:43:49.532Z,20.25
2017-04-05T03:44:21.842Z,20.35
2017-04-05T03:44:54.164Z,20.26
2017-04-05T03:45:26.470Z,20.26
2017-04-05T03:45:58.792Z,20.27
2017-04-05T03:46:31.091Z,20.26
2017-04-05T03:47:03.422Z,20.22
2017-04-05T03:47:35.718Z,20.26
2017-04-05T03:48:08.022Z,20.25
2017-04-05T03:48:40.323Z,20.27
2017-04-05T03:49:12.631Z,20.3
2017-04-05T03:49:44.935Z,20.23
2017-04-05T03:50:17.231Z,20.35
2017-04-05T03:50:49.530Z,20.35
2017-04-05T03:51:21.853Z,20.34
2017-04-05T03:51:54.169Z,20.35
2017-04-05T03:52:26.478Z,20.23
2017-04-05T03:52:58.775Z,20.26
2017-04-05T03:53:31.078Z,20.29
2017-04-05T03:54:03.394Z,20.32
2017-04-05T03:54:35.695Z,20.25
2017-04-05T03:55:08.020Z,20.25
2017-04-05T03:55:40.337Z,20.25
2017-04-05T03:56:12.639Z,20.34
2017-04-05T03:56:44.964Z,20.19
2017-04-05T03:57:17.265Z,20.3
2017-04-05T03:57:49.578Z,20.26
2017-04-05T03:58:21.905Z,20.27
2017-04-05T03:58:54.209Z,20.22
2017-04-05T03:59:26.525Z,20.26
2017-04-05T03:59:58.820Z,20.32
2017-04-05T04:00:31.137Z,20.27
2017-04-05T04:01:03.444Z,20.32
2017-04-05T04:01:35.735Z,20.29
2017-04-05T04:02:08.032Z,20.16
2017-04-05T04:02:40.284Z,20.29
2017-04-05T04:03:12.622Z,20.23
2017-04-05T04:03:44.870Z,20.25
2017-04-05T04:04:17.139Z,20.25
2017-04-05T04:04:50.209Z,20.16
2017-04-05T04:05:22.462Z,20.27
2017-04-05T04:05:54.721Z,20.29
2017-04-05T04:06:26.968Z,20.29
2017-04-05T04:06:59.210Z,20.22
2017-04-05T04:07:31.486Z,20.22
2017-04-05T04:08:03.734Z,20.18
2017-04-05T04:08:35.992Z,20.2
2017-04-05T04:09:08.260Z,20.23
2017-04-05T04:09:40.521Z,20.12
2017-04-05T04:10:12.768Z,20.27
2017-04-05T04:10:45.035Z,20.18
2017-04-05T04:11:17.301Z,20.2
2017-04-05T04:11:49.551Z,20.22
2017-04-05T04:12:21.846Z,20.12
2017-04-05T04:12:54.165Z,20.15
2017-04-05T04:13:26.482Z,20.16
2017-04-05T04:13:58.809Z,20.18
2017-04-05T04:14:31.117Z,20.23
2017-04-05T04:15:03.438Z,20.15
2017-04-05T04:15:35.749Z,20.19
2017-04-05T04:16:08.068Z,20.18
2017-04-05T04:16:40.389Z,20.16
2017-04-05T04:17:12.705Z,20.12
2017-04-05T04:17:45.012Z,20.19
2017-04-05T04:18:17.302Z,20.15
2017-04-05T04:18:49.614Z,20.11
2017-04-05T04:19:21.917Z,20.16
2017-04-05T04:19:54.228Z,20.16
2017-04-05T04:20:26.527Z,20.19
2017-04-05T04:20:58.830Z,20.11
2017-04-05T04:21:31.140Z,20.11
2017-04-05T04:22:03.444Z,20.11
2017-04-05T04:22:35.760Z,20.05
2017-04-05T04:23:08.069Z,20.1
2017-04-05T04:23:40.382Z,20.11
2017-04-05T04:24:12.676Z,20.05
2017-04-05T04:24:44.991Z,20.08
2017-04-05T04:25:17.315Z,20.07
2017-04-05T04:25:49.629Z,20.02
2017-04-05T04:26:21.942Z,20.08
2017-04-05T04:26:54.273Z,20.04
2017-04-05T04:27:26.586Z,20.02
2017-04-05T04:27:58.881Z,20.01
2017-04-05T04:28:31.198Z,20.07
2017-04-05T04:29:03.526Z,20.04
2017-04-05T04:29:35.836Z,20.07
2017-04-05T04:30:08.150Z,20.05
2017-04-05T04:30:40.460Z,19.95
2017-04-05T04:31:12.767Z,20.01
2017-04-05T04:31:45.071Z,19.98
2017-04-05T04:32:17.371Z,19.95
2017-04-05T04:32:49.678Z,20
2017-04-05T04:33:21.988Z,20.01
2017-04-05T04:33:54.303Z,19.98
2017-04-05T04:34:26.621Z,20
2017-04-05T04:34:58.948Z,19.87
2017-04-05T04:35:31.261Z,19.93
2017-04-05T04:36:03.563Z,19.93
2017-04-05T04:36:35.874Z,20
2017-04-05T04:37:08.175Z,19.89
2017-04-05T04:37:40.482Z,19.97
2017-04-05T04:38:12.781Z,19.92
2017-04-05T04:38:45.105Z,19.92
2017-04-05T04:39:17.410Z,19.83
2017-04-05T04:39:49.738Z,19.92
2017-04-05T04:40:22.059Z,19.89
2017-04-05T04:40:54.387Z,19.9
2017-04-05T04:41:26.692Z,19.97
2017-04-05T04:41:58.997Z,19.97
2017-04-05T04:42:31.304Z,19.87
2017-04-05T04:43:03.610Z,19.97
2017-04-05T04:43:35.910Z,19.95
2017-04-05T04:44:08.212Z,19.9
2017-04-05T04:44:40.527Z,19.98
2017-04-05T04:45:12.826Z,19.92
2017-04-05T04:45:45.133Z,19.86
2017-04-05T04:46:17.439Z,19.93
2017-04-05T04:46:49.746Z,19.87
2017-04-05T04:47:22.046Z,19.92
2017-04-05T04:47:54.359Z,19.92
2017-04-05T04:48:26.664Z,19.9
2017-04-05T04:48:58.963Z,19.9
2017-04-05T04:49:31.277Z,20.01
2017-04-05T04:50:03.587Z,19.95
2017-04-05T04:50:35.895Z,19.95
2017-04-05T04:51:08.211Z,19.89
2017-04-05T04:51:40.523Z,19.97
2017-04-05T04:52:12.835Z,19.97
2017-04-05T04:52:45.159Z,19.92
2017-04-05T04:53:17.470Z,20
2017-04-05T04:53:49.772Z,19.97
2017-04-05T04:54:22.075Z,19.97
2017-04-05T04:54:54.382Z,19.89
2017-04-05T04:55:26.682Z,20.02
2017-04-05T04:55:59.022Z,20
2017-04-05T04:56:31.355Z,19.97
2017-04-05T04:57:03.672Z,19.93
2017-04-05T04:57:35.982Z,20.01
2017-04-05T04:58:08.296Z,19.93
2017-04-05T04:58:40.605Z,19.92
2017-04-05T04:59:12.904Z,19.98
2017-04-05T04:59:45.217Z,19.98
2017-04-05T05:00:17.524Z,19.93
2017-04-05T05:00:49.831Z,19.92
2017-04-05T05:01:22.154Z,19.9
2017-04-05T05:01:54.480Z,19.95
2017-04-05T05:02:26.785Z,19.87
2017-04-05T05:02:59.087Z,19.98
2017-04-05T05:03:31.408Z,19.93
2017-04-05T05:04:03.711Z,19.87
2017-04-05T05:04:36.017Z,19.9
2017-04-05T05:05:08.338Z,19.89
2017-04-05T05:05:40.653Z,19.97
2017-04-05T05:06:12.955Z,19.89
2017-04-05T05:06:45.275Z,19.85
2017-04-05T05:07:17.587Z,19.93
2017-04-05T05:07:49.888Z,19.89
2017-04-05T05:08:22.183Z,19.93
2017-04-05T05:08:54.496Z,19.95
2017-04-05T05:09:26.800Z,20.02
2017-04-05T05:09:59.146Z,19.98
2017-04-05T05:10:31.456Z,19.89
2017-04-05T05:11:03.764Z,19.93
2017-04-05T05:11:36.064Z,19.97
2017-04-05T05:12:08.378Z,20
2017-04-05T05:12:40.695Z,20.02
2017-04-05T05:13:13.003Z,19.92
2017-04-05T05:13:45.340Z,20
2017-04-05T05:14:17.624Z,19.98
2017-04-05T05:14:49.929Z,20.01
2017-04-05T05:15:22.262Z,19.95
2017-04-05T05:15:54.579Z,20.02
2017-04-05T05:16:26.891Z,20.02
2017-04-05T05:16:59.198Z,19.98
2017-04-05T05:17:31.508Z,20.04
2017-04-05T05:18:03.815Z,20.02
2017-04-05T05:18:36.132Z,20.04
2017-04-05T05:19:08.432Z,20.05
2017-04-05T05:19:40.755Z,20.05
2017-04-05T05:20:13.070Z,20.1
2017-04-05T05:20:45.381Z,20.04
2017-04-05T05:21:17.709Z,20.07
2017-04-05T05:21:50.033Z,20.04
2017-04-05T05:22:22.270Z,20.07
2017-04-05T05:22:55.240Z,19.98
2017-04-05T05:23:27.487Z,20.05
2017-04-05T05:23:59.748Z,20.02
2017-04-05T05:24:32.142Z,20.04
2017-04-05T05:25:04.413Z,20.16
2017-04-05T05:25:36.651Z,20.05
2017-04-05T05:26:08.896Z,20.04
2017-04-05T05:26:41.190Z,20.04
2017-04-05T05:27:13.449Z,20.12
2017-04-05T05:27:45.721Z,20.05
2017-04-05T05:28:17.979Z,20.1
2017-04-05T05:28:50.231Z,20.11
2017-04-05T05:29:22.513Z,20.1
2017-04-05T05:29:54.766Z,20.19
2017-04-05T05:30:27.008Z,20.16
2017-04-05T05:30:59.766Z,20.2
2017-04-05T05:31:32.712Z,20.18
2017-04-05T05:32:04.978Z,20.15
2017-04-05T05:32:37.301Z,20.16
2017-04-05T05:33:09.624Z,20.16
2017-04-05T05:33:41.956Z,20.11
2017-04-05T05:34:14.262Z,20.18
2017-04-05T05:34:46.577Z,20.12
2017-04-05T05:35:18.887Z,20.18
2017-04-05T05:35:51.186Z,20.16
2017-04-05T05:36:23.512Z,20.18
2017-04-05T05:36:55.844Z,20.15
2017-04-05T05:37:28.153Z,20.16
2017-04-05T05:38:00.498Z,20.2
2017-04-05T05:38:32.838Z,20.19
2017-04-05T05:39:05.164Z,20.15
2017-04-05T05:39:37.482Z,20.18
2017-04-05T05:40:09.799Z,20.22
2017-04-05T05:40:42.101Z,20.19
2017-04-05T05:41:14.413Z,20.18
2017-04-05T05:41:46.733Z,20.16
2017-04-05T05:42:19.047Z,20.19
2017-04-05T05:42:51.292Z,20.2
2017-04-05T05:43:23.585Z,20.16
2017-04-05T05:43:55.892Z,20.23
2017-04-05T05:44:28.117Z,20.23
2017-04-05T05:45:01.376Z,20.25
2017-04-05T05:45:34.243Z,20.23
2017-04-05T05:46:06.518Z,20.34
2017-04-05T05:46:38.928Z,20.29
2017-04-05T05:47:11.202Z,20.26
2017-04-05T05:47:43.553Z,20.37
2017-04-05T05:48:15.916Z,20.27
2017-04-05T05:48:48.343Z,20.37
2017-04-05T05:49:20.624Z,20.2
2017-04-05T05:49:53.000Z,20.26
2017-04-05T05:50:25.288Z,20.22
2017-04-05T05:50:57.546Z,20.25
2017-04-05T05:51:30.319Z,20.23
2017-04-05T05:52:02.565Z,20.34
2017-04-05T05:52:35.020Z,20.25
2017-04-05T05:53:07.351Z,20.34
2017-04-05T05:53:39.669Z,20.34
2017-04-05T05:54:11.966Z,20.38
2017-04-05T05:54:44.284Z,20.35
2017-04-05T05:55:16.598Z,20.4
2017-04-05T05:55:48.899Z,20.34
2017-04-05T05:56:21.214Z,20.37
2017-04-05T05:56:53.521Z,20.37
2017-04-05T05:57:25.842Z,20.35
2017-04-05T05:57:58.151Z,20.37
2017-04-05T05:58:31.189Z,20.44
2017-04-05T05:59:03.510Z,20.37
2017-04-05T05:59:35.813Z,20.3
2017-04-05T06:00:08.140Z,20.37
2017-04-05T06:00:40.453Z,20.41
2017-04-05T06:01:12.773Z,20.54
2017-04-05T06:01:45.089Z,20.41
2017-04-05T06:02:17.415Z,20.51
2017-04-05T06:02:49.664Z,20.41
2017-04-05T06:03:21.950Z,20.49
2017-04-05T06:03:54.201Z,20.48
2017-04-05T06:04:26.467Z,20.49
2017-04-05T06:04:58.735Z,20.48
2017-04-05T06:05:30.994Z,20.54
2017-04-05T06:06:03.251Z,20.57
2017-04-05T06:06:35.525Z,20.51
2017-04-05T06:07:07.759Z,20.53
2017-04-05T06:07:41.223Z,20.57
2017-04-05T06:08:13.456Z,20.53
2017-04-05T06:08:45.705Z,20.58
2017-04-05T06:09:17.948Z,20.54
2017-04-05T06:09:50.832Z,20.56
2017-04-05T06:10:23.111Z,20.57
2017-04-05T06:10:55.388Z,20.57
2017-04-05T06:11:27.653Z,20.6
2017-04-05T06:11:59.906Z,20.57
2017-04-05T06:12:32.252Z,20.61
2017-04-05T06:13:04.777Z,20.54
2017-04-05T06:13:39.146Z,20.61
2017-04-05T06:14:11.489Z,20.54
2017-04-05T06:14:43.833Z,20.57
2017-04-05T06:15:16.176Z,20.6
2017-04-05T06:15:48.480Z,20.58
2017-04-05T06:16:20.788Z,20.6
2017-04-05T06:16:53.113Z,20.57
2017-04-05T06:17:25.421Z,20.6
2017-04-05T06:17:57.733Z,20.56
2017-04-05T06:18:30.043Z,20.61
2017-04-05T06:19:02.461Z,20.67
2017-04-05T06:19:34.790Z,20.71
2017-04-05T06:20:07.111Z,20.64
2017-04-05T06:20:39.427Z,20.66
2017-04-05T06:21:11.734Z,20.64
2017-04-05T06:21:44.066Z,20.75
2017-04-05T06:22:16.371Z,20.66
2017-04-05T06:22:48.700Z,20.76
2017-04-05T06:23:21.026Z,20.72
2017-04-05T06:23:53.331Z,20.68
2017-04-05T06:24:25.639Z,20.71
2017-04-05T06:24:57.947Z,20.71
2017-04-05T06:25:30.249Z,20.71
2017-04-05T06:26:02.563Z,20.72
2017-04-05T06:26:34.875Z,20.76
2017-04-05T06:27:07.209Z,20.76
2017-04-05T06:27:39.522Z,20.81
2017-04-05T06:28:11.860Z,20.86
2017-04-05T06:28:44.173Z,20.85
2017-04-05T06:29:16.479Z,20.88
2017-04-05T06:29:48.779Z,20.85
2017-04-05T06:30:21.093Z,20.82
2017-04-05T06:30:54.367Z,20.81
2017-04-05T06:31:26.740Z,20.81
2017-04-05T06:31:59.045Z,20.78
2017-04-05T06:32:31.368Z,20.94
2017-04-05T06:33:03.670Z,20.83
2017-04-05T06:33:35.991Z,20.86
2017-04-05T06:34:08.310Z,20.86
2017-04-05T06:34:40.626Z,20.94
2017-04-05T06:35:12.949Z,20.97
2017-04-05T06:35:45.258Z,20.88
2017-04-05T06:36:17.576Z,20.98
2017-04-05T06:36:49.901Z,20.9
2017-04-05T06:37:22.223Z,21
2017-04-05T06:37:54.531Z,21.01
2017-04-05T06:38:26.848Z,21.01
2017-04-05T06:38:59.181Z,20.94
2017-04-05T06:39:31.502Z,21.01
2017-04-05T06:40:03.833Z,21.01
2017-04-05T06:40:36.154Z,21.06
2017-04-05T06:41:08.476Z,21.03
2017-04-05T06:41:40.826Z,21
2017-04-05T06:42:13.133Z,20.98
2017-04-05T06:42:45.414Z,21
2017-04-05T06:43:17.673Z,21.06
2017-04-05T06:43:49.961Z,21.04
2017-04-05T06:44:22.224Z,21.06
2017-04-05T06:44:54.457Z,21.03
2017-04-05T06:45:27.314Z,21.04
2017-04-05T06:45:59.567Z,20.98
2017-04-05T06:46:31.853Z,21.03
2017-04-05T06:47:04.137Z,21.03
2017-04-05T06:47:36.448Z,21.06
2017-04-05T06:48:09.429Z,21.06
2017-04-05T06:48:42.273Z,21.03
2017-04-05T06:49:14.525Z,20.98
2017-04-05T06:49:46.807Z,21.12
2017-04-05T06:50:19.924Z,21.11
2017-04-05T06:50:52.214Z,21.06
2017-04-05T06:51:24.560Z,21.09
2017-04-05T06:51:57.852Z,21.06
2017-04-05T06:52:30.133Z,21.04
2017-04-05T06:53:02.374Z,21.03
2017-04-05T06:53:34.652Z,21.03
2017-04-05T06:54:06.946Z,21.13
2017-04-05T06:54:39.269Z,21.01
2017-04-05T06:55:11.509Z,21.13
2017-04-05T06:55:43.771Z,21.06
2017-04-05T06:56:16.055Z,21.11
2017-04-05T06:56:48.325Z,21
2017-04-05T06:57:20.696Z,21.13
2017-04-05T06:57:52.994Z,21.13